SWA160 KHOU-KMAF
Flight info
| Callsign | SWA160 |
|---|---|
| Flight time | 1h 8m |
| Altitude | 36000 |
| Route | RETYR8 JCT |
| Aircraft | B38M/M-SADE2E3GHIJ4J7P2RWZ/LB1D1 |
Departure
| Time | 2026-04-14 21:12 |
|---|---|
| Airport | William P. Hobby Airport (KHOU) |
Arrival
| Time | 2026-04-14 22:21 |
|---|---|
| Airport | Midland International Air and Space Port (KMAF) |
| Time | Latitude | Longitude | Altitude | Speed | Heading |
|---|---|---|---|---|---|
| 2026-04-14 20:32 | 29.65422 | -95.27901 | 48 ft | 0 kts | 338° |
| 2026-04-14 21:01 | 29.65406 | -95.27894 | 50 ft | 4 kts | 338° |
| 2026-04-14 21:01 | 29.65383 | -95.27883 | 62 ft | 4 kts | 321° |
| 2026-04-14 21:02 | 29.65375 | -95.27861 | 60 ft | 4 kts | 257° |
| 2026-04-14 21:02 | 29.65381 | -95.27838 | 45 ft | 4 kts | 249° |
| 2026-04-14 21:02 | 29.65389 | -95.27816 | 51 ft | 0 kts | 249° |
| 2026-04-14 21:07 | 29.65388 | -95.27818 | 51 ft | 1 kts | 249° |
| 2026-04-14 21:07 | 29.65376 | -95.27869 | 61 ft | 13 kts | 258° |
| 2026-04-14 21:07 | 29.65331 | -95.27987 | 52 ft | 15 kts | 231° |
| 2026-04-14 21:07 | 29.65253 | -95.28000 | 52 ft | 14 kts | 136° |
| 2026-04-14 21:08 | 29.65173 | -95.27906 | 54 ft | 20 kts | 134° |
| 2026-04-14 21:08 | 29.65143 | -95.27752 | 54 ft | 22 kts | 89° |
| 2026-04-14 21:08 | 29.65145 | -95.27570 | 54 ft | 23 kts | 89° |
| 2026-04-14 21:08 | 29.65172 | -95.27385 | 49 ft | 24 kts | 48° |
| 2026-04-14 21:09 | 29.65295 | -95.27249 | 54 ft | 24 kts | 43° |
| 2026-04-14 21:09 | 29.65410 | -95.27122 | 53 ft | 22 kts | 44° |
| 2026-04-14 21:09 | 29.65484 | -95.27016 | 52 ft | 15 kts | 78° |
| 2026-04-14 21:09 | 29.65474 | -95.26960 | 53 ft | 3 kts | 121° |
| 2026-04-14 21:10 | 29.65473 | -95.26959 | 53 ft | 0 kts | 122° |
| 2026-04-14 21:11 | 29.65467 | -95.26950 | 51 ft | 4 kts | 128° |
| 2026-04-14 21:11 | 29.65409 | -95.26912 | 53 ft | 16 kts | 179° |
| 2026-04-14 21:11 | 29.65269 | -95.27032 | 54 ft | 46 kts | 223° |
| 2026-04-14 21:11 | 29.64860 | -95.27483 | 54 ft | 115 kts | 224° |
| 2026-04-14 21:12 | 29.64411 | -95.27978 | 53 ft | 152 kts | 224° |
| 2026-04-14 21:12 | 29.63302 | -95.29253 | 616 ft | 180 kts | 223° |
| 2026-04-14 21:12 | 29.62752 | -95.30025 | 1113 ft | 186 kts | 227° |
| 2026-04-14 21:12 | 29.62005 | -95.31240 | 1853 ft | 194 kts | 231° |
| 2026-04-14 21:13 | 29.61205 | -95.32602 | 2326 ft | 217 kts | 236° |
| 2026-04-14 21:13 | 29.60851 | -95.34364 | 2904 ft | 242 kts | 268° |
| 2026-04-14 21:13 | 29.61271 | -95.36331 | 3481 ft | 265 kts | 287° |
| 2026-04-14 21:14 | 29.62396 | -95.40527 | 5109 ft | 277 kts | 284° |
| 2026-04-14 21:14 | 29.62947 | -95.42669 | 5950 ft | 281 kts | 283° |
| 2026-04-14 21:14 | 29.63498 | -95.44830 | 6849 ft | 283 kts | 284° |
| 2026-04-14 21:14 | 29.64060 | -95.47020 | 7600 ft | 289 kts | 284° |
| 2026-04-14 21:15 | 29.64630 | -95.49244 | 8441 ft | 292 kts | 284° |
| 2026-04-14 21:15 | 29.65202 | -95.51477 | 9218 ft | 298 kts | 284° |
| 2026-04-14 21:15 | 29.65793 | -95.53785 | 9970 ft | 304 kts | 284° |
| 2026-04-14 21:15 | 29.66400 | -95.56161 | 10487 ft | 318 kts | 283° |
| 2026-04-14 21:16 | 29.67035 | -95.58663 | 10937 ft | 332 kts | 283° |
| 2026-04-14 21:16 | 29.67692 | -95.61240 | 11626 ft | 337 kts | 284° |
| 2026-04-14 21:16 | 29.68353 | -95.63826 | 12538 ft | 336 kts | 284° |
| 2026-04-14 21:16 | 29.69014 | -95.66413 | 13437 ft | 337 kts | 285° |
| 2026-04-14 21:17 | 29.69673 | -95.69000 | 14301 ft | 337 kts | 285° |
| 2026-04-14 21:17 | 29.70324 | -95.71561 | 15087 ft | 339 kts | 284° |
| 2026-04-14 21:17 | 29.70985 | -95.74160 | 15921 ft | 339 kts | 283° |
| 2026-04-14 21:17 | 29.71653 | -95.76780 | 16650 ft | 343 kts | 283° |
| 2026-04-14 21:18 | 29.72407 | -95.79399 | 17303 ft | 350 kts | 293° |
| 2026-04-14 21:18 | 29.73637 | -95.81831 | 18032 ft | 354 kts | 297° |
| 2026-04-14 21:18 | 29.74903 | -95.84284 | 18615 ft | 359 kts | 297° |
| 2026-04-14 21:18 | 29.76187 | -95.86757 | 19215 ft | 361 kts | 297° |
| 2026-04-14 21:19 | 29.77472 | -95.89251 | 19822 ft | 363 kts | 297° |
| 2026-04-14 21:19 | 29.78764 | -95.91758 | 20420 ft | 365 kts | 296° |
| 2026-04-14 21:19 | 29.80049 | -95.94250 | 21010 ft | 367 kts | 296° |
| 2026-04-14 21:19 | 29.81358 | -95.96791 | 21610 ft | 369 kts | 296° |
| 2026-04-14 21:20 | 29.82672 | -95.99340 | 22182 ft | 372 kts | 296° |
| 2026-04-14 21:20 | 29.83996 | -96.01912 | 22746 ft | 374 kts | 296° |
| 2026-04-14 21:20 | 29.85326 | -96.04497 | 23304 ft | 376 kts | 296° |
| 2026-04-14 21:20 | 29.86666 | -96.07103 | 23817 ft | 379 kts | 296° |
| 2026-04-14 21:21 | 29.88011 | -96.09721 | 24261 ft | 381 kts | 295° |
| 2026-04-14 21:21 | 29.89369 | -96.12365 | 24690 ft | 384 kts | 295° |
| 2026-04-14 21:21 | 29.90733 | -96.15023 | 25117 ft | 387 kts | 295° |
| 2026-04-14 21:21 | 29.92107 | -96.17702 | 25528 ft | 389 kts | 295° |
| 2026-04-14 21:22 | 29.93389 | -96.20450 | 25926 ft | 386 kts | 285° |
| 2026-04-14 21:22 | 29.94010 | -96.23427 | 26321 ft | 383 kts | 276° |
| 2026-04-14 21:22 | 29.94526 | -96.26459 | 26650 ft | 387 kts | 277° |
| 2026-04-14 21:22 | 29.95036 | -96.29512 | 27091 ft | 389 kts | 276° |
| 2026-04-14 21:23 | 29.95528 | -96.32548 | 27500 ft | 391 kts | 276° |
| 2026-04-14 21:23 | 29.96021 | -96.35644 | 27895 ft | 393 kts | 276° |
| 2026-04-14 21:23 | 29.96512 | -96.38763 | 28343 ft | 395 kts | 276° |
| 2026-04-14 21:23 | 29.97003 | -96.41883 | 28786 ft | 396 kts | 276° |
| 2026-04-14 21:24 | 29.97494 | -96.45024 | 29172 ft | 399 kts | 276° |
| 2026-04-14 21:24 | 29.97989 | -96.48186 | 29578 ft | 401 kts | 275° |
| 2026-04-14 21:24 | 29.98485 | -96.51363 | 29959 ft | 403 kts | 275° |
| 2026-04-14 21:24 | 29.98984 | -96.54559 | 30305 ft | 405 kts | 276° |
| 2026-04-14 21:25 | 29.99479 | -96.57766 | 30638 ft | 407 kts | 275° |
| 2026-04-14 21:25 | 29.99976 | -96.60993 | 30963 ft | 409 kts | 275° |
| 2026-04-14 21:25 | 30.00474 | -96.64226 | 31292 ft | 410 kts | 276° |
| 2026-04-14 21:25 | 30.00973 | -96.67477 | 31638 ft | 412 kts | 276° |
| 2026-04-14 21:26 | 30.01467 | -96.70703 | 31982 ft | 414 kts | 276° |
| 2026-04-14 21:26 | 30.01969 | -96.73980 | 32318 ft | 416 kts | 276° |
| 2026-04-14 21:26 | 30.02471 | -96.77273 | 32671 ft | 416 kts | 276° |
| 2026-04-14 21:26 | 30.02973 | -96.80561 | 33095 ft | 416 kts | 276° |
| 2026-04-14 21:27 | 30.03473 | -96.83848 | 33541 ft | 415 kts | 276° |
| 2026-04-14 21:27 | 30.03970 | -96.87122 | 34014 ft | 413 kts | 276° |
| 2026-04-14 21:27 | 30.04464 | -96.90374 | 34425 ft | 411 kts | 276° |
| 2026-04-14 21:27 | 30.04955 | -96.93614 | 34800 ft | 409 kts | 276° |
| 2026-04-14 21:28 | 30.05444 | -96.96848 | 35164 ft | 408 kts | 276° |
| 2026-04-14 21:28 | 30.05929 | -97.00067 | 35517 ft | 406 kts | 276° |
| 2026-04-14 21:28 | 30.06413 | -97.03279 | 35833 ft | 405 kts | 276° |
| 2026-04-14 21:28 | 30.06895 | -97.06480 | 36046 ft | 405 kts | 276° |
| 2026-04-14 21:29 | 30.07844 | -97.12811 | 36038 ft | 400 kts | 275° |
| 2026-04-14 21:29 | 30.08792 | -97.19146 | 36024 ft | 401 kts | 275° |
| 2026-04-14 21:30 | 30.09735 | -97.25480 | 36000 ft | 400 kts | 275° |
| 2026-04-14 21:30 | 30.10676 | -97.31815 | 35998 ft | 400 kts | 275° |
| 2026-04-14 21:31 | 30.11614 | -97.38151 | 35978 ft | 400 kts | 275° |
| 2026-04-14 21:31 | 30.12550 | -97.44497 | 35975 ft | 400 kts | 275° |
| 2026-04-14 21:32 | 30.13481 | -97.50833 | 36001 ft | 400 kts | 275° |
| 2026-04-14 21:32 | 30.14403 | -97.57128 | 36008 ft | 400 kts | 275° |
| 2026-04-14 21:33 | 30.15328 | -97.63470 | 36006 ft | 399 kts | 275° |
| 2026-04-14 21:33 | 30.16250 | -97.69795 | 36013 ft | 399 kts | 275° |
| 2026-04-14 21:34 | 30.17311 | -97.76093 | 36029 ft | 401 kts | 279° |
| 2026-04-14 21:34 | 30.18632 | -97.82351 | 36009 ft | 400 kts | 278° |
| 2026-04-14 21:35 | 30.19911 | -97.88572 | 35993 ft | 399 kts | 278° |
| 2026-04-14 21:35 | 30.21189 | -97.94819 | 36003 ft | 400 kts | 278° |
| 2026-04-14 21:36 | 30.22464 | -98.01076 | 36007 ft | 399 kts | 278° |
| 2026-04-14 21:36 | 30.23731 | -98.07308 | 36017 ft | 398 kts | 278° |
| 2026-04-14 21:37 | 30.24997 | -98.13553 | 36013 ft | 398 kts | 278° |
| 2026-04-14 21:37 | 30.26261 | -98.19801 | 36013 ft | 398 kts | 278° |
| 2026-04-14 21:38 | 30.27519 | -98.26036 | 36017 ft | 398 kts | 278° |
| 2026-04-14 21:38 | 30.28774 | -98.32272 | 36012 ft | 398 kts | 278° |
| 2026-04-14 21:39 | 30.30057 | -98.38460 | 36017 ft | 398 kts | 278° |
| 2026-04-14 21:39 | 30.31387 | -98.44673 | 36001 ft | 398 kts | 278° |
| 2026-04-14 21:40 | 30.32712 | -98.50900 | 35996 ft | 398 kts | 278° |
| 2026-04-14 21:40 | 30.34034 | -98.57123 | 35990 ft | 398 kts | 278° |
| 2026-04-14 21:41 | 30.35352 | -98.63348 | 36006 ft | 398 kts | 278° |
| 2026-04-14 21:41 | 30.36667 | -98.69573 | 35991 ft | 398 kts | 278° |
| 2026-04-14 21:42 | 30.37979 | -98.75800 | 36001 ft | 398 kts | 278° |
| 2026-04-14 21:42 | 30.39288 | -98.82026 | 35993 ft | 398 kts | 278° |
| 2026-04-14 21:43 | 30.40587 | -98.88221 | 35995 ft | 398 kts | 278° |
| 2026-04-14 21:43 | 30.41890 | -98.94450 | 35990 ft | 398 kts | 278° |
| 2026-04-14 21:44 | 30.43189 | -99.00678 | 35989 ft | 398 kts | 278° |
| 2026-04-14 21:44 | 30.44487 | -99.06912 | 35988 ft | 398 kts | 278° |
| 2026-04-14 21:45 | 30.45780 | -99.13145 | 35984 ft | 398 kts | 277° |
| 2026-04-14 21:45 | 30.47062 | -99.19334 | 35985 ft | 397 kts | 277° |
| 2026-04-14 21:46 | 30.48350 | -99.25572 | 35982 ft | 398 kts | 277° |
| 2026-04-14 21:46 | 30.49634 | -99.31803 | 35977 ft | 397 kts | 277° |
| 2026-04-14 21:47 | 30.50914 | -99.38035 | 35987 ft | 397 kts | 277° |
| 2026-04-14 21:47 | 30.52192 | -99.44273 | 35995 ft | 397 kts | 277° |
| 2026-04-14 21:48 | 30.53466 | -99.50505 | 36009 ft | 397 kts | 276° |
| 2026-04-14 21:48 | 30.54736 | -99.56733 | 36020 ft | 397 kts | 276° |
| 2026-04-14 21:49 | 30.56002 | -99.62962 | 36027 ft | 397 kts | 276° |
| 2026-04-14 21:49 | 30.57267 | -99.69200 | 36037 ft | 397 kts | 276° |
| 2026-04-14 21:50 | 30.58523 | -99.75402 | 36036 ft | 397 kts | 276° |
| 2026-04-14 21:50 | 30.60037 | -99.81585 | 36008 ft | 408 kts | 290° |
| 2026-04-14 21:51 | 30.63210 | -99.87183 | 35988 ft | 418 kts | 295° |
| 2026-04-14 21:51 | 30.66536 | -99.92729 | 36009 ft | 419 kts | 296° |
| 2026-04-14 21:52 | 30.69889 | -99.98236 | 35987 ft | 419 kts | 296° |
| 2026-04-14 21:52 | 30.73261 | -100.03768 | 35958 ft | 419 kts | 296° |
| 2026-04-14 21:53 | 30.76634 | -100.09305 | 35957 ft | 419 kts | 296° |
| 2026-04-14 21:53 | 30.80001 | -100.14840 | 35949 ft | 419 kts | 296° |
| 2026-04-14 21:54 | 30.83362 | -100.20373 | 35956 ft | 419 kts | 296° |
| 2026-04-14 21:54 | 30.86741 | -100.25946 | 35948 ft | 423 kts | 296° |
| 2026-04-14 21:55 | 30.90137 | -100.31552 | 35944 ft | 423 kts | 296° |
| 2026-04-14 21:55 | 30.93504 | -100.37118 | 35944 ft | 423 kts | 296° |
| 2026-04-14 21:56 | 30.96893 | -100.42729 | 35939 ft | 423 kts | 296° |
| 2026-04-14 21:56 | 31.00218 | -100.48235 | 35883 ft | 402 kts | 295° |
| 2026-04-14 21:57 | 31.01808 | -100.50877 | 35517 ft | 396 kts | 295° |
| 2026-04-14 21:57 | 31.03389 | -100.53505 | 35001 ft | 395 kts | 295° |
| 2026-04-14 21:57 | 31.04965 | -100.56125 | 34503 ft | 394 kts | 295° |
| 2026-04-14 21:57 | 31.06538 | -100.58740 | 34044 ft | 392 kts | 294° |
| 2026-04-14 21:58 | 31.08101 | -100.61342 | 33521 ft | 391 kts | 294° |
| 2026-04-14 21:58 | 31.09729 | -100.63902 | 32949 ft | 397 kts | 299° |
| 2026-04-14 21:58 | 31.11489 | -100.66394 | 32189 ft | 397 kts | 298° |
| 2026-04-14 21:58 | 31.13229 | -100.68890 | 31525 ft | 395 kts | 298° |
| 2026-04-14 21:59 | 31.14923 | -100.71342 | 30965 ft | 390 kts | 298° |
| 2026-04-14 21:59 | 31.16619 | -100.73806 | 30442 ft | 388 kts | 298° |
| 2026-04-14 21:59 | 31.18306 | -100.76264 | 30007 ft | 386 kts | 298° |
| 2026-04-14 21:59 | 31.19978 | -100.78701 | 29516 ft | 384 kts | 298° |
| 2026-04-14 22:00 | 31.21639 | -100.81124 | 29056 ft | 380 kts | 298° |
| 2026-04-14 22:00 | 31.23285 | -100.83525 | 28651 ft | 377 kts | 298° |
| 2026-04-14 22:00 | 31.24916 | -100.85908 | 28238 ft | 373 kts | 298° |
| 2026-04-14 22:00 | 31.26530 | -100.88266 | 27831 ft | 370 kts | 298° |
| 2026-04-14 22:01 | 31.28134 | -100.90613 | 27411 ft | 368 kts | 298° |
| 2026-04-14 22:01 | 31.29705 | -100.92911 | 27021 ft | 365 kts | 298° |
| 2026-04-14 22:01 | 31.31287 | -100.95226 | 26625 ft | 362 kts | 298° |
| 2026-04-14 22:01 | 31.32852 | -100.97520 | 26267 ft | 360 kts | 298° |
| 2026-04-14 22:02 | 31.34413 | -100.99809 | 25827 ft | 359 kts | 298° |
| 2026-04-14 22:02 | 31.35446 | -101.01323 | 25343 ft | 360 kts | 298° |
| 2026-04-14 22:02 | 31.37007 | -101.03614 | 24797 ft | 358 kts | 298° |
| 2026-04-14 22:02 | 31.38562 | -101.05896 | 24350 ft | 359 kts | 298° |
| 2026-04-14 22:03 | 31.40117 | -101.08181 | 23907 ft | 359 kts | 298° |
| 2026-04-14 22:03 | 31.41676 | -101.10473 | 23480 ft | 360 kts | 298° |
| 2026-04-14 22:03 | 31.43235 | -101.12766 | 22928 ft | 359 kts | 298° |
| 2026-04-14 22:03 | 31.44786 | -101.15048 | 22369 ft | 358 kts | 298° |
| 2026-04-14 22:04 | 31.46332 | -101.17323 | 21812 ft | 356 kts | 299° |
| 2026-04-14 22:04 | 31.47872 | -101.19593 | 21295 ft | 355 kts | 299° |
| 2026-04-14 22:04 | 31.49396 | -101.21840 | 21021 ft | 349 kts | 299° |
| 2026-04-14 22:04 | 31.50898 | -101.24056 | 20729 ft | 345 kts | 299° |
| 2026-04-14 22:05 | 31.52384 | -101.26249 | 20383 ft | 342 kts | 299° |
| 2026-04-14 22:05 | 31.53860 | -101.28429 | 20029 ft | 340 kts | 299° |
| 2026-04-14 22:05 | 31.55324 | -101.30592 | 19698 ft | 338 kts | 299° |
| 2026-04-14 22:05 | 31.56780 | -101.32745 | 19333 ft | 336 kts | 299° |
| 2026-04-14 22:06 | 31.58210 | -101.34859 | 18990 ft | 334 kts | 300° |
| 2026-04-14 22:06 | 31.59652 | -101.36993 | 18638 ft | 332 kts | 300° |
| 2026-04-14 22:06 | 31.61069 | -101.39092 | 18302 ft | 324 kts | 300° |
| 2026-04-14 22:06 | 31.62455 | -101.41145 | 17941 ft | 317 kts | 300° |
| 2026-04-14 22:07 | 31.63810 | -101.43155 | 17596 ft | 310 kts | 300° |
| 2026-04-14 22:07 | 31.65132 | -101.45116 | 17262 ft | 302 kts | 300° |
| 2026-04-14 22:07 | 31.66420 | -101.47028 | 16965 ft | 296 kts | 300° |
| 2026-04-14 22:07 | 31.67714 | -101.48950 | 16643 ft | 304 kts | 300° |
| 2026-04-14 22:08 | 31.69035 | -101.50912 | 16325 ft | 309 kts | 301° |
| 2026-04-14 22:08 | 31.70368 | -101.52892 | 16019 ft | 309 kts | 301° |
| 2026-04-14 22:08 | 31.71702 | -101.54876 | 15698 ft | 308 kts | 301° |
| 2026-04-14 22:08 | 31.73024 | -101.56843 | 15378 ft | 306 kts | 301° |
| 2026-04-14 22:09 | 31.74340 | -101.58801 | 15054 ft | 304 kts | 301° |
| 2026-04-14 22:09 | 31.75628 | -101.60720 | 14744 ft | 301 kts | 301° |
| 2026-04-14 22:09 | 31.76922 | -101.62648 | 14426 ft | 300 kts | 301° |
| 2026-04-14 22:09 | 31.78208 | -101.64566 | 14115 ft | 298 kts | 301° |
| 2026-04-14 22:10 | 31.79487 | -101.66474 | 13799 ft | 297 kts | 302° |
| 2026-04-14 22:10 | 31.80764 | -101.68378 | 13487 ft | 295 kts | 302° |
| 2026-04-14 22:10 | 31.82033 | -101.70272 | 13141 ft | 294 kts | 302° |
| 2026-04-14 22:10 | 31.83296 | -101.72160 | 12815 ft | 292 kts | 302° |
| 2026-04-14 22:11 | 31.84548 | -101.74031 | 12503 ft | 290 kts | 302° |
| 2026-04-14 22:11 | 31.85792 | -101.75891 | 12187 ft | 288 kts | 303° |
| 2026-04-14 22:11 | 31.87028 | -101.77741 | 11890 ft | 286 kts | 303° |
| 2026-04-14 22:11 | 31.88241 | -101.79555 | 11587 ft | 284 kts | 303° |
| 2026-04-14 22:12 | 31.89457 | -101.81376 | 11307 ft | 282 kts | 303° |
| 2026-04-14 22:12 | 31.90665 | -101.83186 | 11024 ft | 280 kts | 303° |
| 2026-04-14 22:12 | 31.91874 | -101.84998 | 10658 ft | 282 kts | 304° |
| 2026-04-14 22:12 | 31.93083 | -101.86812 | 10330 ft | 282 kts | 304° |
| 2026-04-14 22:13 | 31.94296 | -101.88631 | 9989 ft | 283 kts | 305° |
| 2026-04-14 22:13 | 31.95676 | -101.90306 | 9647 ft | 287 kts | 314° |
| 2026-04-14 22:13 | 31.97188 | -101.91847 | 9269 ft | 288 kts | 315° |
| 2026-04-14 22:13 | 31.98717 | -101.93380 | 8911 ft | 288 kts | 315° |
| 2026-04-14 22:14 | 32.00232 | -101.94910 | 8545 ft | 286 kts | 316° |
| 2026-04-14 22:14 | 32.01876 | -101.96233 | 8186 ft | 286 kts | 325° |
| 2026-04-14 22:14 | 32.03576 | -101.97428 | 7828 ft | 284 kts | 326° |
| 2026-04-14 22:14 | 32.05269 | -101.98601 | 7480 ft | 281 kts | 325° |
| 2026-04-14 22:15 | 32.06950 | -101.99757 | 7105 ft | 277 kts | 324° |
| 2026-04-14 22:15 | 32.08391 | -102.01191 | 6751 ft | 268 kts | 301° |
| 2026-04-14 22:15 | 32.09116 | -102.03149 | 6402 ft | 257 kts | 279° |
| 2026-04-14 22:15 | 32.09415 | -102.05193 | 6091 ft | 250 kts | 275° |
| 2026-04-14 22:16 | 32.09634 | -102.07185 | 5764 ft | 247 kts | 271° |
| 2026-04-14 22:16 | 32.09773 | -102.09200 | 5528 ft | 247 kts | 270° |
| 2026-04-14 22:16 | 32.09926 | -102.11202 | 5259 ft | 241 kts | 270° |
| 2026-04-14 22:16 | 32.10092 | -102.13132 | 5049 ft | 232 kts | 271° |
| 2026-04-14 22:17 | 32.09972 | -102.14963 | 4794 ft | 220 kts | 246° |
| 2026-04-14 22:17 | 32.09276 | -102.16519 | 4697 ft | 212 kts | 236° |
| 2026-04-14 22:17 | 32.08436 | -102.17961 | 4632 ft | 213 kts | 231° |
| 2026-04-14 22:17 | 32.07565 | -102.19316 | 4564 ft | 195 kts | 231° |
| 2026-04-14 22:18 | 32.06719 | -102.20433 | 4561 ft | 178 kts | 212° |
| 2026-04-14 22:18 | 32.05562 | -102.20820 | 4565 ft | 174 kts | 185° |
| 2026-04-14 22:18 | 32.04348 | -102.20903 | 4409 ft | 168 kts | 185° |
| 2026-04-14 22:18 | 32.03237 | -102.21023 | 4272 ft | 155 kts | 187° |
| 2026-04-14 22:19 | 32.02172 | -102.21125 | 4080 ft | 154 kts | 184° |
| 2026-04-14 22:19 | 32.00023 | -102.20981 | 3724 ft | 155 kts | 174° |
| 2026-04-14 22:19 | 31.98945 | -102.20837 | 3525 ft | 156 kts | 176° |
| 2026-04-14 22:20 | 31.97894 | -102.20733 | 3321 ft | 148 kts | 179° |
| 2026-04-14 22:20 | 31.96866 | -102.20648 | 3097 ft | 148 kts | 176° |
| 2026-04-14 22:20 | 31.95852 | -102.20543 | 2903 ft | 143 kts | 175° |
| 2026-04-14 22:20 | 31.94952 | -102.20452 | 2872 ft | 105 kts | 175° |
| 2026-04-14 22:21 | 31.94428 | -102.20398 | 2869 ft | 57 kts | 175° |
| 2026-04-14 22:21 | 31.94101 | -102.20386 | 2868 ft | 41 kts | 188° |
| 2026-04-14 22:21 | 31.93935 | -102.20459 | 2868 ft | 4 kts | 205° |
| 2026-04-14 22:21 | 31.93903 | -102.20477 | 2867 ft | 6 kts | 206° |
| 2026-04-14 22:22 | 31.93856 | -102.20504 | 2868 ft | 9 kts | 206° |
| 2026-04-14 22:22 | 31.93795 | -102.20537 | 2870 ft | 10 kts | 199° |
| 2026-04-14 22:22 | 31.93728 | -102.20572 | 2871 ft | 11 kts | 217° |
| 2026-04-14 22:22 | 31.93701 | -102.20640 | 2871 ft | 8 kts | 262° |
| 2026-04-14 22:23 | 31.93695 | -102.20695 | 2871 ft | 4 kts | 262° |
| 2026-04-14 22:23 | 31.93695 | -102.20697 | 2871 ft | 0 kts | 262° |